createdAt,value
2022-10-11T00:02:31.757Z,84.49
2022-10-11T00:06:33.721Z,84.46
2022-10-11T00:10:35.406Z,84.66
2022-10-11T00:14:37.655Z,84.60
2022-10-11T00:18:40.201Z,84.24
2022-10-11T00:22:42.620Z,84.34
2022-10-11T00:26:46.983Z,84.20
2022-10-11T00:30:49.027Z,84.30
2022-10-11T00:34:50.763Z,84.64
2022-10-11T00:38:52.936Z,84.53
2022-10-11T00:42:54.601Z,84.67
2022-10-11T00:47:08.016Z,84.63
2022-10-11T00:51:19.614Z,84.61
2022-10-11T00:55:23.101Z,84.96
2022-10-11T00:59:28.773Z,84.85
2022-10-11T01:03:31.682Z,84.58
2022-10-11T01:07:34.407Z,84.95
2022-10-11T01:11:39.458Z,84.93
2022-10-11T01:15:49.214Z,84.72
2022-10-11T01:20:09.389Z,85.00
2022-10-11T01:24:49.121Z,85.27
2022-10-11T01:29:05.901Z,85.12
2022-10-11T01:33:16.761Z,85.59
2022-10-11T01:37:32.913Z,85.35
2022-10-11T01:41:39.140Z,85.65
2022-10-11T01:45:42.591Z,85.28
2022-10-11T01:49:44.416Z,85.37
2022-10-11T01:53:55.150Z,85.66
2022-10-11T01:58:05.737Z,85.87
2022-10-11T02:02:28.694Z,85.69
2022-10-11T02:06:47.179Z,86.04
2022-10-11T02:11:04.379Z,86.14
2022-10-11T02:15:09.417Z,85.99
2022-10-11T02:19:15.211Z,86.00
2022-10-11T02:23:29.894Z,86.12
2022-10-11T02:27:34.127Z,86.60
2022-10-11T02:31:37.255Z,86.19
2022-10-11T02:35:44.431Z,86.44
2022-10-11T02:39:52.406Z,86.39
2022-10-11T02:44:03.448Z,86.55
2022-10-11T02:48:07.249Z,86.59
2022-10-11T02:52:09.072Z,86.74
2022-10-11T02:56:10.809Z,86.65
2022-10-11T03:00:13.484Z,86.98
2022-10-11T03:04:15.197Z,86.98
2022-10-11T03:08:17.581Z,86.82
2022-10-11T03:12:19.291Z,86.82
2022-10-11T03:16:21.189Z,86.71
2022-10-11T03:20:23.658Z,87.24
2022-10-11T03:24:25.504Z,87.61
2022-10-11T03:28:27.437Z,87.23
2022-10-11T03:32:29.303Z,87.28
2022-10-11T03:36:31.085Z,87.51
2022-10-11T03:40:32.829Z,87.49
2022-10-11T03:44:34.535Z,87.36
2022-10-11T03:48:36.449Z,88.00
2022-10-11T03:52:38.105Z,87.96
2022-10-11T03:56:40.005Z,87.71
2022-10-11T04:00:41.709Z,87.97
2022-10-11T04:04:43.585Z,87.83
2022-10-11T04:08:45.254Z,88.17
2022-10-11T04:12:46.913Z,87.87
2022-10-11T04:16:48.554Z,87.77
2022-10-11T04:20:50.298Z,87.74
2022-10-11T04:24:52.250Z,88.08
2022-10-11T04:28:54.230Z,88.03
2022-10-11T04:32:56.033Z,88.08
2022-10-11T04:36:57.728Z,88.07
2022-10-11T04:41:10.087Z,87.67
2022-10-11T04:45:11.825Z,87.74
2022-10-11T04:49:13.585Z,87.80
2022-10-11T04:53:15.266Z,88.25
2022-10-11T04:57:16.937Z,88.01
2022-10-11T05:01:18.578Z,88.08
2022-10-11T05:05:20.213Z,88.35
2022-10-11T05:09:21.981Z,88.06
2022-10-11T05:13:24.591Z,88.01
2022-10-11T05:17:26.270Z,88.14
2022-10-11T05:21:29.069Z,88.13
2022-10-11T05:25:30.735Z,88.40
2022-10-11T05:29:32.494Z,88.72
2022-10-11T05:33:34.557Z,88.54
2022-10-11T05:37:36.275Z,88.55
2022-10-11T05:41:38.095Z,88.15
2022-10-11T05:45:41.684Z,88.43
2022-10-11T05:49:43.406Z,88.33
2022-10-11T05:53:45.049Z,88.43
2022-10-11T05:57:46.782Z,88.27
2022-10-11T06:01:49.214Z,88.40
2022-10-11T06:05:55.789Z,88.15
2022-10-11T06:09:58.578Z,88.30
2022-10-11T06:14:00.336Z,88.35
2022-10-11T06:18:02.023Z,88.51
2022-10-11T06:22:03.794Z,88.74
2022-10-11T06:26:09.061Z,88.96
2022-10-11T06:30:11.600Z,88.54
2022-10-11T06:34:13.275Z,88.77
2022-10-11T06:38:15.249Z,88.56
2022-10-11T06:42:17.497Z,88.43
2022-10-11T06:46:20.754Z,88.66
2022-10-11T06:50:40.793Z,88.21
2022-10-11T06:54:45.146Z,87.72
2022-10-11T06:58:47.415Z,87.78
2022-10-11T07:02:49.929Z,87.74
2022-10-11T07:06:51.757Z,87.32
2022-10-11T07:10:53.451Z,87.28
2022-10-11T07:14:55.113Z,87.46
2022-10-11T07:19:00.687Z,87.24
2022-10-11T07:23:02.717Z,87.22
2022-10-11T07:27:04.422Z,87.39
2022-10-11T07:31:18.296Z,87.35
2022-10-11T07:35:19.974Z,86.80
2022-10-11T07:39:22.069Z,86.72
2022-10-11T07:43:24.270Z,87.03
2022-10-11T07:47:25.998Z,86.46
2022-10-11T07:51:27.664Z,86.46
2022-10-11T07:55:31.219Z,86.33
2022-10-11T07:59:33.387Z,86.14
2022-10-11T08:03:35.326Z,85.70
2022-10-11T08:07:37.496Z,85.43
2022-10-11T08:11:39.940Z,85.63
2022-10-11T08:15:41.761Z,85.62
2022-10-11T08:19:43.432Z,85.74
2022-10-11T08:23:45.491Z,85.45
2022-10-11T08:27:47.193Z,85.19
2022-10-11T08:31:48.905Z,85.20
2022-10-11T08:35:51.477Z,85.42
2022-10-11T08:39:53.122Z,84.74
2022-10-11T08:44:14.484Z,84.95
2022-10-11T08:48:30.860Z,84.71
2022-10-11T08:52:46.889Z,84.87
2022-10-11T08:56:49.496Z,84.61
2022-10-11T09:00:54.354Z,84.46
2022-10-11T09:04:56.470Z,84.32
2022-10-11T09:09:19.611Z,84.66
2022-10-11T09:13:31.616Z,84.37
2022-10-11T09:17:44.957Z,84.12
2022-10-11T09:21:56.614Z,83.57
2022-10-11T09:26:17.350Z,83.03
2022-10-11T09:30:20.183Z,82.66
2022-10-11T09:34:25.669Z,82.33
2022-10-11T09:38:36.779Z,81.44
2022-10-11T09:42:38.667Z,81.45
2022-10-11T09:46:42.345Z,80.53
2022-10-11T09:50:44.751Z,80.25
2022-10-11T09:54:50.105Z,80.25
2022-10-11T09:59:06.907Z,79.42
2022-10-11T10:03:28.616Z,78.85
2022-10-11T10:07:32.028Z,78.10
2022-10-11T10:11:37.017Z,76.49
2022-10-11T10:15:49.110Z,75.31
2022-10-11T10:19:55.525Z,75.48
2022-10-11T10:24:03.159Z,74.82
2022-10-11T10:28:19.656Z,74.61
2022-10-11T10:32:26.290Z,74.94
2022-10-11T10:36:39.826Z,74.50
2022-10-11T10:40:43.482Z,74.86
2022-10-11T10:44:51.580Z,74.65
2022-10-11T10:49:48.850Z,74.24
2022-10-11T10:54:21.377Z,73.80
2022-10-11T10:58:47.700Z,73.82
2022-10-11T11:03:01.258Z,73.83
2022-10-11T11:07:17.083Z,73.48
2022-10-11T11:11:36.031Z,72.70
2022-10-11T11:16:03.464Z,72.71
2022-10-11T11:20:24.927Z,72.40
2022-10-11T11:24:32.350Z,72.37
2022-10-11T11:29:04.190Z,71.88
2022-10-11T11:33:27.401Z,70.77
2022-10-11T11:37:34.392Z,71.11
2022-10-11T11:41:40.966Z,69.63
2022-10-11T11:45:51.325Z,69.58
2022-10-11T11:50:23.005Z,69.75
2022-10-11T11:54:54.424Z,69.08
2022-10-11T11:59:12.982Z,68.16
2022-10-11T12:03:19.684Z,67.72
2022-10-11T12:07:25.014Z,67.85
2022-10-11T12:11:35.362Z,67.47
2022-10-11T12:15:37.828Z,66.98
2022-10-11T12:19:41.923Z,66.91
2022-10-11T12:23:46.462Z,67.59
2022-10-11T12:27:54.300Z,66.65
2022-10-11T12:31:59.029Z,67.44
2022-10-11T12:36:29.682Z,67.16
2022-10-11T12:40:43.693Z,67.75
2022-10-11T12:45:11.146Z,67.34
2022-10-11T12:49:13.187Z,67.21
2022-10-11T12:53:39.820Z,67.14
2022-10-11T12:57:59.866Z,67.10
2022-10-11T13:02:01.543Z,67.43
2022-10-11T13:06:20.294Z,67.19
2022-10-11T13:10:33.163Z,67.57
2022-10-11T13:14:58.107Z,67.37
2022-10-11T13:19:00.314Z,67.65
2022-10-11T13:23:02.376Z,68.05
2022-10-11T13:27:06.252Z,67.90
2022-10-11T13:31:09.436Z,67.92
2022-10-11T13:35:38.227Z,66.92
2022-10-11T13:39:40.212Z,67.15
2022-10-11T13:43:42.180Z,67.14
2022-10-11T13:47:44.671Z,66.85
2022-10-11T13:51:58.749Z,65.99
2022-10-11T13:56:07.549Z,66.02
2022-10-11T14:00:15.342Z,65.75
2022-10-11T14:04:17.581Z,66.03
2022-10-11T14:08:38.202Z,65.48
2022-10-11T14:12:44.436Z,64.64
2022-10-11T14:16:58.790Z,64.63
2022-10-11T14:21:37.597Z,64.15
2022-10-11T14:25:39.321Z,63.82
2022-10-11T14:29:55.595Z,64.07
2022-10-11T14:34:07.216Z,63.11
2022-10-11T14:38:11.829Z,62.64
2022-10-11T14:42:15.007Z,63.16
2022-10-11T14:46:23.699Z,61.94
2022-10-11T14:50:55.222Z,61.90
2022-10-11T14:54:56.908Z,62.21
2022-10-11T14:58:58.695Z,62.14
2022-10-11T15:03:00.313Z,62.22
2022-10-11T15:07:02.379Z,62.35
2022-10-11T15:11:04.150Z,62.52
2022-10-11T15:15:06.293Z,62.49
2022-10-11T15:19:16.913Z,62.68
2022-10-11T15:23:18.613Z,62.60
2022-10-11T15:27:20.670Z,63.25
2022-10-11T15:31:23.041Z,63.04
2022-10-11T15:35:25.789Z,62.93
2022-10-11T15:39:33.931Z,62.69
2022-10-11T15:43:35.485Z,62.66
2022-10-11T15:47:37.309Z,62.81
2022-10-11T15:51:39.633Z,62.79
2022-10-11T15:55:43.848Z,63.45
2022-10-11T15:59:45.576Z,63.61
2022-10-11T16:03:49.111Z,64.08
2022-10-11T16:07:52.040Z,64.08
2022-10-11T16:11:53.702Z,64.66
2022-10-11T16:15:55.720Z,64.90
2022-10-11T16:19:57.695Z,65.39
2022-10-11T16:23:59.508Z,65.71
2022-10-11T16:28:02.552Z,65.88
2022-10-11T16:32:04.414Z,66.17
2022-10-11T16:36:26.659Z,66.42
2022-10-11T16:40:29.947Z,66.69
2022-10-11T16:44:32.825Z,67.10
2022-10-11T16:48:34.486Z,67.20
2022-10-11T16:52:36.230Z,67.41
2022-10-11T16:56:40.067Z,68.25
2022-10-11T17:00:42.697Z,68.66
2022-10-11T17:04:45.393Z,69.30
2022-10-11T17:08:47.111Z,69.34
2022-10-11T17:12:50.259Z,69.41
2022-10-11T17:16:52.119Z,69.44
2022-10-11T17:21:01.834Z,69.45
2022-10-11T17:25:03.773Z,69.33
2022-10-11T17:29:05.437Z,69.55
2022-10-11T17:33:07.356Z,69.55
2022-10-11T17:37:10.154Z,69.46
2022-10-11T17:41:12.265Z,69.89
2022-10-11T17:45:14.041Z,70.57
2022-10-11T17:49:15.978Z,70.75
2022-10-11T17:53:17.778Z,71.73
2022-10-11T17:57:19.445Z,71.93
2022-10-11T18:01:24.104Z,72.73
2022-10-11T18:05:25.879Z,72.93
2022-10-11T18:09:27.638Z,73.06
2022-10-11T18:13:29.376Z,73.69
2022-10-11T18:17:31.275Z,73.89
2022-10-11T18:21:34.616Z,73.95
2022-10-11T18:25:36.794Z,74.77
2022-10-11T18:29:38.608Z,75.13
2022-10-11T18:33:40.702Z,75.45
2022-10-11T18:37:42.447Z,75.31
2022-10-11T18:41:44.765Z,75.66
2022-10-11T18:45:46.491Z,76.03
2022-10-11T18:49:48.199Z,76.31
2022-10-11T18:53:50.534Z,76.63
2022-10-11T18:57:52.219Z,77.00
2022-10-11T19:01:53.944Z,76.97
2022-10-11T19:05:55.597Z,77.43
2022-10-11T19:09:57.249Z,77.69
2022-10-11T19:14:00.860Z,77.50
2022-10-11T19:18:02.502Z,78.13
2022-10-11T19:22:04.875Z,78.60
2022-10-11T19:26:09.247Z,78.72
2022-10-11T19:30:11.418Z,79.07
2022-10-11T19:34:13.615Z,79.48
2022-10-11T19:38:15.260Z,79.57
2022-10-11T19:42:16.943Z,79.71
2022-10-11T19:46:38.366Z,80.28
2022-10-11T19:50:42.837Z,80.50
2022-10-11T19:54:44.566Z,80.50
2022-10-11T19:58:46.270Z,81.01
2022-10-11T20:02:48.824Z,81.29
2022-10-11T20:06:50.506Z,81.54
2022-10-11T20:10:55.474Z,81.38
2022-10-11T20:14:57.203Z,81.64
2022-10-11T20:18:59.486Z,81.79
2022-10-11T20:23:01.253Z,82.02
2022-10-11T20:27:04.979Z,82.14
2022-10-11T20:31:15.666Z,82.02
2022-10-11T20:35:17.336Z,81.94
2022-10-11T20:39:19.053Z,81.88
2022-10-11T20:43:24.118Z,82.38
2022-10-11T20:47:26.001Z,82.20
2022-10-11T20:51:28.549Z,82.28
2022-10-11T20:55:30.215Z,82.42
2022-10-11T20:59:31.942Z,82.65
2022-10-11T21:03:33.605Z,82.85
2022-10-11T21:07:35.577Z,82.49
2022-10-11T21:11:37.770Z,82.95
2022-10-11T21:15:39.431Z,82.69
2022-10-11T21:19:41.204Z,82.70
2022-10-11T21:23:42.918Z,83.06
2022-10-11T21:27:44.599Z,83.20
2022-10-11T21:31:46.292Z,83.05
2022-10-11T21:35:47.971Z,82.89
2022-10-11T21:39:49.672Z,82.70
2022-10-11T21:43:51.940Z,82.85
2022-10-11T21:47:53.566Z,83.05
2022-10-11T21:51:55.344Z,82.77
2022-10-11T21:55:58.346Z,82.79
2022-10-11T22:00:00.006Z,82.73
2022-10-11T22:04:01.642Z,82.42
2022-10-11T22:08:03.420Z,82.52
2022-10-11T22:12:05.324Z,82.33
2022-10-11T22:16:09.864Z,82.32
2022-10-11T22:20:11.575Z,82.60
2022-10-11T22:24:13.479Z,82.52
2022-10-11T22:28:15.261Z,82.67
2022-10-11T22:32:16.912Z,83.01
2022-10-11T22:36:19.488Z,83.66
2022-10-11T22:40:21.189Z,83.73
2022-10-11T22:44:22.849Z,84.17
2022-10-11T22:48:24.719Z,84.02
2022-10-11T22:52:26.426Z,84.05
2022-10-11T22:56:28.158Z,83.67
2022-10-11T23:00:29.930Z,84.23
2022-10-11T23:04:31.581Z,84.44
2022-10-11T23:08:33.399Z,84.51
2022-10-11T23:12:35.121Z,84.57
2022-10-11T23:16:36.847Z,84.84
2022-10-11T23:20:39.903Z,85.02
2022-10-11T23:24:41.717Z,84.79
2022-10-11T23:28:43.861Z,84.95
2022-10-11T23:32:45.551Z,85.03
2022-10-11T23:36:47.284Z,85.06
2022-10-11T23:40:48.942Z,84.84
2022-10-11T23:44:52.059Z,85.15
2022-10-11T23:48:53.774Z,85.09
2022-10-11T23:52:57.109Z,84.85
2022-10-11T23:56:58.786Z,85.11
